sensor_id;sensor_type;location;lat;lon;timestamp;temperature;humidity
5136;DHT22;2586;48.710;9.202;2023-06-14T00:01:17;14.70;1.00
5136;DHT22;2586;48.710;9.202;2023-06-14T00:03:45;14.70;1.00
5136;DHT22;2586;48.710;9.202;2023-06-14T00:06:12;14.60;1.00
5136;DHT22;2586;48.710;9.202;2023-06-14T00:08:38;14.60;1.00
5136;DHT22;2586;48.710;9.202;2023-06-14T00:11:05;14.60;1.00
5136;DHT22;2586;48.710;9.202;2023-06-14T00:13:31;14.60;1.00
5136;DHT22;2586;48.710;9.202;2023-06-14T00:15:56;14.60;1.00
5136;DHT22;2586;48.710;9.202;2023-06-14T00:18:22;14.50;1.00
5136;DHT22;2586;48.710;9.202;2023-06-14T00:20:50;14.50;1.00
5136;DHT22;2586;48.710;9.202;2023-06-14T00:23:16;14.50;1.00
5136;DHT22;2586;48.710;9.202;2023-06-14T00:25:42;14.50;1.00
5136;DHT22;2586;48.710;9.202;2023-06-14T00:28:07;14.40;1.00
5136;DHT22;2586;48.710;9.202;2023-06-14T00:30:33;14.40;1.00
5136;DHT22;2586;48.710;9.202;2023-06-14T00:33:00;14.40;1.00
5136;DHT22;2586;48.710;9.202;2023-06-14T00:35:25;14.40;1.00
5136;DHT22;2586;48.710;9.202;2023-06-14T00:37:51;14.20;1.00
5136;DHT22;2586;48.710;9.202;2023-06-14T00:40:17;14.20;1.00
5136;DHT22;2586;48.710;9.202;2023-06-14T00:42:42;14.10;1.00
5136;DHT22;2586;48.710;9.202;2023-06-14T00:45:08;14.20;1.00
5136;DHT22;2586;48.710;9.202;2023-06-14T00:47:36;14.10;1.00
5136;DHT22;2586;48.710;9.202;2023-06-14T00:50:03;14.20;1.00
5136;DHT22;2586;48.710;9.202;2023-06-14T00:52:30;14.10;1.00
5136;DHT22;2586;48.710;9.202;2023-06-14T00:54:58;14.00;1.00
5136;DHT22;2586;48.710;9.202;2023-06-14T00:57:23;14.00;1.00
5136;DHT22;2586;48.710;9.202;2023-06-14T00:59:49;13.90;1.00
5136;DHT22;2586;48.710;9.202;2023-06-14T01:02:16;13.80;1.00
5136;DHT22;2586;48.710;9.202;2023-06-14T01:04:44;13.80;1.00
5136;DHT22;2586;48.710;9.202;2023-06-14T01:13:01;13.70;1.00
5136;DHT22;2586;48.710;9.202;2023-06-14T01:15:30;13.70;1.00
5136;DHT22;2586;48.710;9.202;2023-06-14T01:17:56;13.70;1.00
5136;DHT22;2586;48.710;9.202;2023-06-14T01:20:29;13.60;1.00
5136;DHT22;2586;48.710;9.202;2023-06-14T01:22:56;13.60;1.00
5136;DHT22;2586;48.710;9.202;2023-06-14T01:25:22;13.40;1.00
5136;DHT22;2586;48.710;9.202;2023-06-14T01:27:50;13.30;1.00
5136;DHT22;2586;48.710;9.202;2023-06-14T01:30:18;13.20;1.00
5136;DHT22;2586;48.710;9.202;2023-06-14T01:32:45;13.10;1.00
5136;DHT22;2586;48.710;9.202;2023-06-14T01:35:12;13.10;1.00
5136;DHT22;2586;48.710;9.202;2023-06-14T01:37:37;12.80;1.00
5136;DHT22;2586;48.710;9.202;2023-06-14T01:40:05;12.80;1.00
5136;DHT22;2586;48.710;9.202;2023-06-14T01:42:35;12.80;1.00
5136;DHT22;2586;48.710;9.202;2023-06-14T01:45:03;12.70;1.00
5136;DHT22;2586;48.710;9.202;2023-06-14T01:47:30;12.80;1.00
5136;DHT22;2586;48.710;9.202;2023-06-14T01:49:56;12.70;1.00
5136;DHT22;2586;48.710;9.202;2023-06-14T01:52:22;12.70;1.00
5136;DHT22;2586;48.710;9.202;2023-06-14T01:54:50;12.70;1.00
5136;DHT22;2586;48.710;9.202;2023-06-14T01:57:15;12.70;1.00
5136;DHT22;2586;48.710;9.202;2023-06-14T01:59:41;12.70;1.00
5136;DHT22;2586;48.710;9.202;2023-06-14T02:02:07;12.80;1.00
5136;DHT22;2586;48.710;9.202;2023-06-14T02:04:33;12.80;1.00
5136;DHT22;2586;48.710;9.202;2023-06-14T02:06:58;12.70;1.00
5136;DHT22;2586;48.710;9.202;2023-06-14T02:09:24;12.70;1.00
5136;DHT22;2586;48.710;9.202;2023-06-14T02:11:50;12.70;1.00
5136;DHT22;2586;48.710;9.202;2023-06-14T02:14:16;12.60;1.00
5136;DHT22;2586;48.710;9.202;2023-06-14T02:16:42;12.60;1.00
5136;DHT22;2586;48.710;9.202;2023-06-14T02:19:17;12.60;1.00
5136;DHT22;2586;48.710;9.202;2023-06-14T02:21:43;12.50;1.00
5136;DHT22;2586;48.710;9.202;2023-06-14T02:24:09;12.50;1.00
5136;DHT22;2586;48.710;9.202;2023-06-14T02:26:35;12.50;1.00
5136;DHT22;2586;48.710;9.202;2023-06-14T02:29:03;12.60;1.00
5136;DHT22;2586;48.710;9.202;2023-06-14T02:31:29;12.50;1.00
5136;DHT22;2586;48.710;9.202;2023-06-14T02:33:55;12.50;1.00
5136;DHT22;2586;48.710;9.202;2023-06-14T02:36:20;12.40;1.00
5136;DHT22;2586;48.710;9.202;2023-06-14T02:38:46;12.20;1.00
5136;DHT22;2586;48.710;9.202;2023-06-14T02:41:12;12.10;1.00
5136;DHT22;2586;48.710;9.202;2023-06-14T02:43:37;12.00;2.80
5136;DHT22;2586;48.710;9.202;2023-06-14T02:46:03;11.90;1.00
5136;DHT22;2586;48.710;9.202;2023-06-14T02:48:29;12.00;17.90
5136;DHT22;2586;48.710;9.202;2023-06-14T02:50:55;12.00;2.40
5136;DHT22;2586;48.710;9.202;2023-06-14T02:53:21;12.10;1.00
5136;DHT22;2586;48.710;9.202;2023-06-14T02:55:47;12.20;1.00
5136;DHT22;2586;48.710;9.202;2023-06-14T02:58:14;12.10;16.30
5136;DHT22;2586;48.710;9.202;2023-06-14T03:00:39;12.00;1.00
5136;DHT22;2586;48.710;9.202;2023-06-14T03:03:06;12.00;11.60
5136;DHT22;2586;48.710;9.202;2023-06-14T03:05:41;11.80;35.10
5136;DHT22;2586;48.710;9.202;2023-06-14T03:08:11;11.80;26.40
5136;DHT22;2586;48.710;9.202;2023-06-14T03:10:48;11.80;76.10
5136;DHT22;2586;48.710;9.202;2023-06-14T03:13:15;11.70;59.70
5136;DHT22;2586;48.710;9.202;2023-06-14T03:15:42;11.70;84.00
5136;DHT22;2586;48.710;9.202;2023-06-14T03:18:08;11.70;82.90
5136;DHT22;2586;48.710;9.202;2023-06-14T03:20:35;11.70;32.60
5136;DHT22;2586;48.710;9.202;2023-06-14T03:23:02;11.90;20.20
5136;DHT22;2586;48.710;9.202;2023-06-14T03:25:28;11.90;20.70
5136;DHT22;2586;48.710;9.202;2023-06-14T03:27:58;11.90;42.90
5136;DHT22;2586;48.710;9.202;2023-06-14T03:30:24;11.90;27.70
5136;DHT22;2586;48.710;9.202;2023-06-14T03:32:49;11.80;71.00
5136;DHT22;2586;48.710;9.202;2023-06-14T03:35:19;11.80;65.60
5136;DHT22;2586;48.710;9.202;2023-06-14T03:37:45;11.70;99.60
5136;DHT22;2586;48.710;9.202;2023-06-14T03:40:12;11.60;98.50
5136;DHT22;2586;48.710;9.202;2023-06-14T03:42:38;11.50;99.90
5136;DHT22;2586;48.710;9.202;2023-06-14T03:45:04;11.60;98.40
5136;DHT22;2586;48.710;9.202;2023-06-14T03:47:30;11.70;86.40
5136;DHT22;2586;48.710;9.202;2023-06-14T03:49:55;11.70;83.50
5136;DHT22;2586;48.710;9.202;2023-06-14T03:52:21;11.80;83.80
5136;DHT22;2586;48.710;9.202;2023-06-14T03:54:48;11.80;71.20
5136;DHT22;2586;48.710;9.202;2023-06-14T03:57:15;11.90;44.20
5136;DHT22;2586;48.710;9.202;2023-06-14T03:59:40;12.00;64.10
5136;DHT22;2586;48.710;9.202;2023-06-14T04:02:06;12.00;77.90
5136;DHT22;2586;48.710;9.202;2023-06-14T04:04:32;11.90;61.60
5136;DHT22;2586;48.710;9.202;2023-06-14T04:06:58;12.00;48.80
5136;DHT22;2586;48.710;9.202;2023-06-14T04:09:26;12.10;44.20
5136;DHT22;2586;48.710;9.202;2023-06-14T04:11:52;12.30;27.00
5136;DHT22;2586;48.710;9.202;2023-06-14T04:14:19;12.30;52.30
5136;DHT22;2586;48.710;9.202;2023-06-14T04:16:46;12.20;89.80
5136;DHT22;2586;48.710;9.202;2023-06-14T04:19:11;12.20;53.70
5136;DHT22;2586;48.710;9.202;2023-06-14T04:21:37;12.30;99.90
5136;DHT22;2586;48.710;9.202;2023-06-14T04:24:03;12.30;93.40
5136;DHT22;2586;48.710;9.202;2023-06-14T04:26:28;12.40;75.50
5136;DHT22;2586;48.710;9.202;2023-06-14T04:28:55;12.40;61.40
5136;DHT22;2586;48.710;9.202;2023-06-14T04:31:23;12.40;98.90
5136;DHT22;2586;48.710;9.202;2023-06-14T04:33:51;12.40;99.90
5136;DHT22;2586;48.710;9.202;2023-06-14T04:36:19;12.50;68.60
5136;DHT22;2586;48.710;9.202;2023-06-14T04:38:45;12.60;25.70
5136;DHT22;2586;48.710;9.202;2023-06-14T04:41:11;12.70;5.00
5136;DHT22;2586;48.710;9.202;2023-06-14T04:43:38;12.90;1.00
5136;DHT22;2586;48.710;9.202;2023-06-14T04:46:07;13.00;1.00
5136;DHT22;2586;48.710;9.202;2023-06-14T04:48:37;13.20;1.00
5136;DHT22;2586;48.710;9.202;2023-06-14T04:51:08;13.30;1.00
5136;DHT22;2586;48.710;9.202;2023-06-14T04:53:35;13.50;1.00
5136;DHT22;2586;48.710;9.202;2023-06-14T04:56:00;13.60;1.00
5136;DHT22;2586;48.710;9.202;2023-06-14T04:58:27;13.70;1.00
5136;DHT22;2586;48.710;9.202;2023-06-14T05:00:54;13.90;1.00
5136;DHT22;2586;48.710;9.202;2023-06-14T05:03:22;14.00;1.00
5136;DHT22;2586;48.710;9.202;2023-06-14T05:05:49;14.10;1.00
5136;DHT22;2586;48.710;9.202;2023-06-14T05:08:16;14.20;1.00
5136;DHT22;2586;48.710;9.202;2023-06-14T05:10:41;14.30;1.00
5136;DHT22;2586;48.710;9.202;2023-06-14T05:13:07;14.40;1.00
5136;DHT22;2586;48.710;9.202;2023-06-14T05:15:33;14.40;1.00
5136;DHT22;2586;48.710;9.202;2023-06-14T05:17:59;14.40;1.00
5136;DHT22;2586;48.710;9.202;2023-06-14T05:20:25;14.50;1.00
5136;DHT22;2586;48.710;9.202;2023-06-14T05:22:54;14.60;1.00
5136;DHT22;2586;48.710;9.202;2023-06-14T05:25:20;14.70;1.00
5136;DHT22;2586;48.710;9.202;2023-06-14T05:27:47;14.70;1.00
5136;DHT22;2586;48.710;9.202;2023-06-14T05:30:13;14.80;1.00
5136;DHT22;2586;48.710;9.202;2023-06-14T05:32:39;15.00;1.00
5136;DHT22;2586;48.710;9.202;2023-06-14T05:35:05;15.10;1.00
5136;DHT22;2586;48.710;9.202;2023-06-14T05:37:31;15.20;1.00
5136;DHT22;2586;48.710;9.202;2023-06-14T05:39:57;15.30;1.00
5136;DHT22;2586;48.710;9.202;2023-06-14T05:42:23;15.50;1.00
5136;DHT22;2586;48.710;9.202;2023-06-14T05:44:48;15.60;1.00
5136;DHT22;2586;48.710;9.202;2023-06-14T05:47:14;15.70;1.00
5136;DHT22;2586;48.710;9.202;2023-06-14T05:49:39;15.90;1.00
5136;DHT22;2586;48.710;9.202;2023-06-14T05:52:05;16.10;1.00
5136;DHT22;2586;48.710;9.202;2023-06-14T05:54:31;16.20;1.00
5136;DHT22;2586;48.710;9.202;2023-06-14T05:56:57;16.30;1.00
5136;DHT22;2586;48.710;9.202;2023-06-14T05:59:27;16.40;1.00
5136;DHT22;2586;48.710;9.202;2023-06-14T06:01:53;16.50;1.00
5136;DHT22;2586;48.710;9.202;2023-06-14T06:04:18;16.70;1.00
5136;DHT22;2586;48.710;9.202;2023-06-14T06:06:44;16.70;1.00
5136;DHT22;2586;48.710;9.202;2023-06-14T06:09:10;16.90;1.00
5136;DHT22;2586;48.710;9.202;2023-06-14T06:11:36;17.00;1.00
5136;DHT22;2586;48.710;9.202;2023-06-14T06:14:01;17.10;1.00
5136;DHT22;2586;48.710;9.202;2023-06-14T06:16:27;17.30;1.00
5136;DHT22;2586;48.710;9.202;2023-06-14T06:18:52;17.30;1.00
5136;DHT22;2586;48.710;9.202;2023-06-14T06:21:18;17.50;1.00
5136;DHT22;2586;48.710;9.202;2023-06-14T06:23:43;17.60;1.00
5136;DHT22;2586;48.710;9.202;2023-06-14T06:26:09;17.60;1.00
5136;DHT22;2586;48.710;9.202;2023-06-14T06:28:35;17.70;1.00
5136;DHT22;2586;48.710;9.202;2023-06-14T06:31:01;17.80;1.00
5136;DHT22;2586;48.710;9.202;2023-06-14T06:33:26;17.80;1.00
5136;DHT22;2586;48.710;9.202;2023-06-14T06:35:52;17.80;1.00
5136;DHT22;2586;48.710;9.202;2023-06-14T06:38:18;17.90;1.00
5136;DHT22;2586;48.710;9.202;2023-06-14T06:40:44;18.10;1.00
5136;DHT22;2586;48.710;9.202;2023-06-14T06:43:10;18.40;1.00
5136;DHT22;2586;48.710;9.202;2023-06-14T06:45:39;18.50;1.00
5136;DHT22;2586;48.710;9.202;2023-06-14T06:48:05;18.90;1.00
5136;DHT22;2586;48.710;9.202;2023-06-14T06:50:31;19.10;1.00
5136;DHT22;2586;48.710;9.202;2023-06-14T06:52:56;19.30;1.00
5136;DHT22;2586;48.710;9.202;2023-06-14T06:55:22;19.20;1.00
5136;DHT22;2586;48.710;9.202;2023-06-14T06:57:48;19.20;1.00
5136;DHT22;2586;48.710;9.202;2023-06-14T07:00:15;19.30;1.00
5136;DHT22;2586;48.710;9.202;2023-06-14T07:02:41;19.40;1.00
5136;DHT22;2586;48.710;9.202;2023-06-14T07:05:07;19.40;1.00
5136;DHT22;2586;48.710;9.202;2023-06-14T07:07:33;19.50;1.00
5136;DHT22;2586;48.710;9.202;2023-06-14T07:09:59;19.50;1.00
5136;DHT22;2586;48.710;9.202;2023-06-14T07:12:25;19.60;1.00
5136;DHT22;2586;48.710;9.202;2023-06-14T07:14:51;19.70;1.00
5136;DHT22;2586;48.710;9.202;2023-06-14T07:17:17;20.00;1.00
5136;DHT22;2586;48.710;9.202;2023-06-14T07:19:42;20.00;1.00
5136;DHT22;2586;48.710;9.202;2023-06-14T07:22:08;20.00;1.00
5136;DHT22;2586;48.710;9.202;2023-06-14T07:24:33;20.20;1.00
5136;DHT22;2586;48.710;9.202;2023-06-14T07:27:01;20.20;1.00
5136;DHT22;2586;48.710;9.202;2023-06-14T07:29:27;20.10;1.00
5136;DHT22;2586;48.710;9.202;2023-06-14T07:31:53;20.20;1.00
5136;DHT22;2586;48.710;9.202;2023-06-14T07:34:18;20.30;1.00
5136;DHT22;2586;48.710;9.202;2023-06-14T07:36:44;20.50;1.00
5136;DHT22;2586;48.710;9.202;2023-06-14T07:39:10;20.60;1.00
5136;DHT22;2586;48.710;9.202;2023-06-14T07:41:36;20.70;1.00
5136;DHT22;2586;48.710;9.202;2023-06-14T07:44:01;20.90;1.00
5136;DHT22;2586;48.710;9.202;2023-06-14T07:46:27;21.00;1.00
5136;DHT22;2586;48.710;9.202;2023-06-14T07:48:53;21.20;1.00
5136;DHT22;2586;48.710;9.202;2023-06-14T07:51:19;21.20;1.00
5136;DHT22;2586;48.710;9.202;2023-06-14T07:53:44;21.10;1.00
5136;DHT22;2586;48.710;9.202;2023-06-14T07:56:10;21.20;1.00
5136;DHT22;2586;48.710;9.202;2023-06-14T07:58:35;21.20;1.00
5136;DHT22;2586;48.710;9.202;2023-06-14T08:01:01;21.40;1.00
5136;DHT22;2586;48.710;9.202;2023-06-14T08:03:31;21.70;1.00
5136;DHT22;2586;48.710;9.202;2023-06-14T08:05:57;21.70;1.00
5136;DHT22;2586;48.710;9.202;2023-06-14T08:08:23;21.70;1.00
5136;DHT22;2586;48.710;9.202;2023-06-14T08:10:49;21.90;1.00
5136;DHT22;2586;48.710;9.202;2023-06-14T08:13:14;22.10;1.00
5136;DHT22;2586;48.710;9.202;2023-06-14T08:15:40;22.20;1.00
5136;DHT22;2586;48.710;9.202;2023-06-14T08:18:06;22.30;1.00
5136;DHT22;2586;48.710;9.202;2023-06-14T08:20:31;22.20;1.00
5136;DHT22;2586;48.710;9.202;2023-06-14T08:22:57;22.40;1.00
5136;DHT22;2586;48.710;9.202;2023-06-14T08:25:23;22.30;1.00
5136;DHT22;2586;48.710;9.202;2023-06-14T08:27:49;22.40;1.00
5136;DHT22;2586;48.710;9.202;2023-06-14T08:30:15;22.60;1.00
5136;DHT22;2586;48.710;9.202;2023-06-14T08:32:42;22.70;1.00
5136;DHT22;2586;48.710;9.202;2023-06-14T08:35:08;22.90;1.00
5136;DHT22;2586;48.710;9.202;2023-06-14T08:37:41;23.20;1.00
5136;DHT22;2586;48.710;9.202;2023-06-14T08:40:22;23.20;1.00
5136;DHT22;2586;48.710;9.202;2023-06-14T08:42:51;23.10;1.00
5136;DHT22;2586;48.710;9.202;2023-06-14T08:45:18;23.40;1.00
5136;DHT22;2586;48.710;9.202;2023-06-14T08:47:47;23.60;1.00
5136;DHT22;2586;48.710;9.202;2023-06-14T08:50:21;23.40;1.00
5136;DHT22;2586;48.710;9.202;2023-06-14T08:52:53;23.70;1.00
5136;DHT22;2586;48.710;9.202;2023-06-14T08:55:21;23.90;1.00
5136;DHT22;2586;48.710;9.202;2023-06-14T08:57:51;24.00;1.00
5136;DHT22;2586;48.710;9.202;2023-06-14T09:00:19;24.30;1.00
5136;DHT22;2586;48.710;9.202;2023-06-14T09:02:46;24.10;1.00
5136;DHT22;2586;48.710;9.202;2023-06-14T09:05:12;24.10;1.00
5136;DHT22;2586;48.710;9.202;2023-06-14T09:07:44;24.40;1.00
5136;DHT22;2586;48.710;9.202;2023-06-14T09:10:11;24.60;1.00
5136;DHT22;2586;48.710;9.202;2023-06-14T09:12:37;24.60;1.00
5136;DHT22;2586;48.710;9.202;2023-06-14T09:15:05;24.70;1.00
5136;DHT22;2586;48.710;9.202;2023-06-14T09:17:35;24.80;1.00
5136;DHT22;2586;48.710;9.202;2023-06-14T09:20:05;24.80;1.00
5136;DHT22;2586;48.710;9.202;2023-06-14T09:22:39;24.90;1.00
5136;DHT22;2586;48.710;9.202;2023-06-14T09:25:05;25.20;1.00
5136;DHT22;2586;48.710;9.202;2023-06-14T09:27:32;25.10;1.00
5136;DHT22;2586;48.710;9.202;2023-06-14T09:29:57;25.20;1.00
5136;DHT22;2586;48.710;9.202;2023-06-14T09:32:23;25.00;1.00
5136;DHT22;2586;48.710;9.202;2023-06-14T09:34:50;25.20;1.00
5136;DHT22;2586;48.710;9.202;2023-06-14T09:37:30;25.30;1.00
5136;DHT22;2586;48.710;9.202;2023-06-14T09:39:56;25.50;1.00
5136;DHT22;2586;48.710;9.202;2023-06-14T09:42:21;26.10;1.00
5136;DHT22;2586;48.710;9.202;2023-06-14T09:44:51;26.20;1.00
5136;DHT22;2586;48.710;9.202;2023-06-14T09:47:18;26.20;1.00
5136;DHT22;2586;48.710;9.202;2023-06-14T09:49:44;26.20;1.00
5136;DHT22;2586;48.710;9.202;2023-06-14T09:52:20;26.70;1.00
5136;DHT22;2586;48.710;9.202;2023-06-14T09:54:47;26.60;1.00
5136;DHT22;2586;48.710;9.202;2023-06-14T09:57:14;26.90;1.00
5136;DHT22;2586;48.710;9.202;2023-06-14T09:59:45;26.80;1.00
5136;DHT22;2586;48.710;9.202;2023-06-14T10:02:26;26.90;1.00
5136;DHT22;2586;48.710;9.202;2023-06-14T10:05:15;26.90;1.00
5136;DHT22;2586;48.710;9.202;2023-06-14T10:07:50;27.20;1.00
5136;DHT22;2586;48.710;9.202;2023-06-14T10:10:16;26.70;1.00
5136;DHT22;2586;48.710;9.202;2023-06-14T10:12:42;26.30;1.00
5136;DHT22;2586;48.710;9.202;2023-06-14T10:15:10;26.10;1.00
5136;DHT22;2586;48.710;9.202;2023-06-14T10:18:00;26.80;1.00
5136;DHT22;2586;48.710;9.202;2023-06-14T10:20:33;27.20;1.00
5136;DHT22;2586;48.710;9.202;2023-06-14T10:23:10;27.30;1.00
5136;DHT22;2586;48.710;9.202;2023-06-14T10:25:37;27.70;1.00
5136;DHT22;2586;48.710;9.202;2023-06-14T10:28:23;27.90;1.00
5136;DHT22;2586;48.710;9.202;2023-06-14T10:31:06;28.20;1.00
5136;DHT22;2586;48.710;9.202;2023-06-14T10:33:37;28.80;1.00
5136;DHT22;2586;48.710;9.202;2023-06-14T10:39:06;28.70;1.00
5136;DHT22;2586;48.710;9.202;2023-06-14T10:41:35;27.60;1.00
5136;DHT22;2586;48.710;9.202;2023-06-14T10:44:32;27.50;1.00
5136;DHT22;2586;48.710;9.202;2023-06-14T10:47:01;27.80;1.00
5136;DHT22;2586;48.710;9.202;2023-06-14T10:49:43;27.80;1.00
5136;DHT22;2586;48.710;9.202;2023-06-14T10:52:14;28.60;1.00
5136;DHT22;2586;48.710;9.202;2023-06-14T11:00:08;27.40;1.00
5136;DHT22;2586;48.710;9.202;2023-06-14T11:05:26;28.20;1.00
5136;DHT22;2586;48.710;9.202;2023-06-14T11:10:45;28.80;1.00
5136;DHT22;2586;48.710;9.202;2023-06-14T11:13:11;29.10;1.00
5136;DHT22;2586;48.710;9.202;2023-06-14T11:15:37;29.50;1.00
5136;DHT22;2586;48.710;9.202;2023-06-14T11:18:05;28.90;1.00
5136;DHT22;2586;48.710;9.202;2023-06-14T11:20:33;28.20;1.00
5136;DHT22;2586;48.710;9.202;2023-06-14T11:23:00;28.60;1.00
5136;DHT22;2586;48.710;9.202;2023-06-14T11:25:26;29.10;1.00
5136;DHT22;2586;48.710;9.202;2023-06-14T11:27:55;29.30;1.00
5136;DHT22;2586;48.710;9.202;2023-06-14T11:30:23;28.50;1.00
5136;DHT22;2586;48.710;9.202;2023-06-14T11:32:50;27.50;1.00
5136;DHT22;2586;48.710;9.202;2023-06-14T11:35:16;27.20;1.00
5136;DHT22;2586;48.710;9.202;2023-06-14T11:37:42;27.90;1.00
5136;DHT22;2586;48.710;9.202;2023-06-14T11:40:10;28.60;1.00
5136;DHT22;2586;48.710;9.202;2023-06-14T11:42:37;28.90;1.00
5136;DHT22;2586;48.710;9.202;2023-06-14T11:45:06;29.30;1.00
5136;DHT22;2586;48.710;9.202;2023-06-14T11:47:33;29.10;1.00
5136;DHT22;2586;48.710;9.202;2023-06-14T11:50:04;29.10;1.00
5136;DHT22;2586;48.710;9.202;2023-06-14T11:52:31;29.40;1.00
5136;DHT22;2586;48.710;9.202;2023-06-14T11:54:57;30.20;1.00
5136;DHT22;2586;48.710;9.202;2023-06-14T11:57:24;30.00;1.00
5136;DHT22;2586;48.710;9.202;2023-06-14T11:59:50;29.20;1.00
5136;DHT22;2586;48.710;9.202;2023-06-14T12:02:16;29.00;1.00
5136;DHT22;2586;48.710;9.202;2023-06-14T12:04:42;29.50;1.00
5136;DHT22;2586;48.710;9.202;2023-06-14T12:07:15;30.00;1.00
5136;DHT22;2586;48.710;9.202;2023-06-14T12:12:36;30.90;1.00
5136;DHT22;2586;48.710;9.202;2023-06-14T12:15:07;30.50;1.00
5136;DHT22;2586;48.710;9.202;2023-06-14T12:17:38;30.60;1.00
5136;DHT22;2586;48.710;9.202;2023-06-14T12:20:08;30.90;1.00
5136;DHT22;2586;48.710;9.202;2023-06-14T12:22:52;31.10;1.00
5136;DHT22;2586;48.710;9.202;2023-06-14T12:25:32;31.50;1.00
5136;DHT22;2586;48.710;9.202;2023-06-14T12:27:59;31.10;1.00
5136;DHT22;2586;48.710;9.202;2023-06-14T12:30:28;30.60;1.00
5136;DHT22;2586;48.710;9.202;2023-06-14T12:32:54;31.10;1.00
5136;DHT22;2586;48.710;9.202;2023-06-14T12:35:19;31.70;1.00
5136;DHT22;2586;48.710;9.202;2023-06-14T12:37:45;31.70;1.00
5136;DHT22;2586;48.710;9.202;2023-06-14T12:40:12;29.90;1.00
5136;DHT22;2586;48.710;9.202;2023-06-14T12:42:38;29.20;1.00
5136;DHT22;2586;48.710;9.202;2023-06-14T12:45:03;28.50;1.00
5136;DHT22;2586;48.710;9.202;2023-06-14T12:47:29;28.50;1.00
5136;DHT22;2586;48.710;9.202;2023-06-14T12:49:55;28.70;1.00
5136;DHT22;2586;48.710;9.202;2023-06-14T12:52:21;28.10;1.00
5136;DHT22;2586;48.710;9.202;2023-06-14T12:54:46;28.10;1.00
5136;DHT22;2586;48.710;9.202;2023-06-14T12:57:12;28.00;1.00
5136;DHT22;2586;48.710;9.202;2023-06-14T12:59:38;27.70;1.00
5136;DHT22;2586;48.710;9.202;2023-06-14T13:02:13;27.50;1.00
5136;DHT22;2586;48.710;9.202;2023-06-14T13:04:39;27.50;1.00
5136;DHT22;2586;48.710;9.202;2023-06-14T13:07:05;27.30;1.00
5136;DHT22;2586;48.710;9.202;2023-06-14T13:09:30;27.10;1.00
5136;DHT22;2586;48.710;9.202;2023-06-14T13:11:56;27.40;1.00
5136;DHT22;2586;48.710;9.202;2023-06-14T13:14:22;28.50;1.00
5136;DHT22;2586;48.710;9.202;2023-06-14T13:16:48;29.10;1.00
5136;DHT22;2586;48.710;9.202;2023-06-14T13:19:13;30.20;1.00
5136;DHT22;2586;48.710;9.202;2023-06-14T13:21:39;30.70;1.00
5136;DHT22;2586;48.710;9.202;2023-06-14T13:24:05;30.90;1.00
5136;DHT22;2586;48.710;9.202;2023-06-14T13:26:32;31.10;1.00
5136;DHT22;2586;48.710;9.202;2023-06-14T13:28:58;31.20;1.00
5136;DHT22;2586;48.710;9.202;2023-06-14T13:31:23;31.40;1.00
5136;DHT22;2586;48.710;9.202;2023-06-14T13:33:49;31.50;1.00
5136;DHT22;2586;48.710;9.202;2023-06-14T13:36:14;31.50;1.00
5136;DHT22;2586;48.710;9.202;2023-06-14T13:38:40;31.40;1.00
5136;DHT22;2586;48.710;9.202;2023-06-14T13:41:06;30.90;1.00
5136;DHT22;2586;48.710;9.202;2023-06-14T13:43:31;30.60;1.00
5136;DHT22;2586;48.710;9.202;2023-06-14T13:45:57;31.10;1.00
5136;DHT22;2586;48.710;9.202;2023-06-14T13:48:23;31.70;1.00
5136;DHT22;2586;48.710;9.202;2023-06-14T13:50:50;32.00;1.00
5136;DHT22;2586;48.710;9.202;2023-06-14T13:53:15;32.10;1.00
5136;DHT22;2586;48.710;9.202;2023-06-14T13:55:41;31.80;1.00
5136;DHT22;2586;48.710;9.202;2023-06-14T13:58:06;32.10;1.00
5136;DHT22;2586;48.710;9.202;2023-06-14T14:00:32;32.60;1.00
5136;DHT22;2586;48.710;9.202;2023-06-14T14:02:58;31.90;1.00
5136;DHT22;2586;48.710;9.202;2023-06-14T14:05:25;30.60;1.00
5136;DHT22;2586;48.710;9.202;2023-06-14T14:07:55;29.80;1.00
5136;DHT22;2586;48.710;9.202;2023-06-14T14:10:22;30.50;1.00
5136;DHT22;2586;48.710;9.202;2023-06-14T14:12:48;30.50;1.00
5136;DHT22;2586;48.710;9.202;2023-06-14T14:15:14;30.20;1.00
5136;DHT22;2586;48.710;9.202;2023-06-14T14:17:40;31.00;1.00
5136;DHT22;2586;48.710;9.202;2023-06-14T14:20:07;31.30;1.00
5136;DHT22;2586;48.710;9.202;2023-06-14T14:22:32;31.30;1.00
5136;DHT22;2586;48.710;9.202;2023-06-14T14:24:58;31.90;1.00
5136;DHT22;2586;48.710;9.202;2023-06-14T14:27:24;31.90;1.00
5136;DHT22;2586;48.710;9.202;2023-06-14T14:29:49;30.90;1.00
5136;DHT22;2586;48.710;9.202;2023-06-14T14:32:15;31.30;1.00
5136;DHT22;2586;48.710;9.202;2023-06-14T14:34:40;32.00;1.00
5136;DHT22;2586;48.710;9.202;2023-06-14T14:37:06;32.30;1.00
5136;DHT22;2586;48.710;9.202;2023-06-14T14:39:32;32.70;1.00
5136;DHT22;2586;48.710;9.202;2023-06-14T14:41:58;33.10;1.00
5136;DHT22;2586;48.710;9.202;2023-06-14T14:44:23;33.50;1.00
5136;DHT22;2586;48.710;9.202;2023-06-14T14:46:49;33.60;1.00
5136;DHT22;2586;48.710;9.202;2023-06-14T14:49:14;33.40;1.00
5136;DHT22;2586;48.710;9.202;2023-06-14T14:51:40;33.50;1.00
5136;DHT22;2586;48.710;9.202;2023-06-14T14:54:06;34.10;1.00
5136;DHT22;2586;48.710;9.202;2023-06-14T14:56:32;34.10;1.00
5136;DHT22;2586;48.710;9.202;2023-06-14T14:58:58;33.80;1.00
5136;DHT22;2586;48.710;9.202;2023-06-14T15:01:23;33.90;1.00
5136;DHT22;2586;48.710;9.202;2023-06-14T15:03:49;32.50;1.00
5136;DHT22;2586;48.710;9.202;2023-06-14T15:06:15;31.00;1.00
5136;DHT22;2586;48.710;9.202;2023-06-14T15:08:40;30.10;1.00
5136;DHT22;2586;48.710;9.202;2023-06-14T15:11:06;29.40;1.00
5136;DHT22;2586;48.710;9.202;2023-06-14T15:13:32;28.90;1.00
5136;DHT22;2586;48.710;9.202;2023-06-14T15:15:57;29.20;1.00
5136;DHT22;2586;48.710;9.202;2023-06-14T15:18:24;30.40;1.00
5136;DHT22;2586;48.710;9.202;2023-06-14T15:20:50;31.70;1.00
5136;DHT22;2586;48.710;9.202;2023-06-14T15:23:15;32.20;1.00
5136;DHT22;2586;48.710;9.202;2023-06-14T15:25:45;31.50;1.00
5136;DHT22;2586;48.710;9.202;2023-06-14T15:28:12;31.70;1.00
5136;DHT22;2586;48.710;9.202;2023-06-14T15:30:38;32.20;1.00
5136;DHT22;2586;48.710;9.202;2023-06-14T15:33:03;32.40;1.00
5136;DHT22;2586;48.710;9.202;2023-06-14T15:35:29;32.90;1.00
5136;DHT22;2586;48.710;9.202;2023-06-14T15:37:54;33.10;1.00
5136;DHT22;2586;48.710;9.202;2023-06-14T15:40:20;33.60;1.00
5136;DHT22;2586;48.710;9.202;2023-06-14T15:42:46;33.70;1.00
5136;DHT22;2586;48.710;9.202;2023-06-14T15:45:11;33.40;1.00
5136;DHT22;2586;48.710;9.202;2023-06-14T15:47:37;33.20;1.00
5136;DHT22;2586;48.710;9.202;2023-06-14T15:50:03;33.50;1.00
5136;DHT22;2586;48.710;9.202;2023-06-14T15:52:30;33.50;1.00
5136;DHT22;2586;48.710;9.202;2023-06-14T15:54:56;33.70;1.00
5136;DHT22;2586;48.710;9.202;2023-06-14T15:57:21;33.70;1.00
5136;DHT22;2586;48.710;9.202;2023-06-14T15:59:47;33.90;1.00
5136;DHT22;2586;48.710;9.202;2023-06-14T16:02:12;33.90;1.00
5136;DHT22;2586;48.710;9.202;2023-06-14T16:04:39;33.70;1.00
5136;DHT22;2586;48.710;9.202;2023-06-14T16:07:04;33.70;1.00
5136;DHT22;2586;48.710;9.202;2023-06-14T16:09:31;33.70;1.00
5136;DHT22;2586;48.710;9.202;2023-06-14T16:11:57;33.70;1.00
5136;DHT22;2586;48.710;9.202;2023-06-14T16:14:22;33.70;1.00
5136;DHT22;2586;48.710;9.202;2023-06-14T16:16:48;33.80;1.00
5136;DHT22;2586;48.710;9.202;2023-06-14T16:19:13;34.20;1.00
5136;DHT22;2586;48.710;9.202;2023-06-14T16:21:39;33.80;1.00
5136;DHT22;2586;48.710;9.202;2023-06-14T16:24:05;33.20;1.00
5136;DHT22;2586;48.710;9.202;2023-06-14T16:26:30;33.20;1.00
5136;DHT22;2586;48.710;9.202;2023-06-14T16:28:56;33.60;1.00
5136;DHT22;2586;48.710;9.202;2023-06-14T16:31:22;33.50;1.00
5136;DHT22;2586;48.710;9.202;2023-06-14T16:33:48;33.30;1.00
5136;DHT22;2586;48.710;9.202;2023-06-14T16:36:21;33.10;1.00
5136;DHT22;2586;48.710;9.202;2023-06-14T16:38:46;33.10;1.00